createdAt,value
2023-04-30T00:00:09.547Z,12.04
2023-04-30T00:02:40.204Z,12.01
2023-04-30T00:05:08.385Z,12.02
2023-04-30T00:07:35.989Z,11.98
2023-04-30T00:10:05.546Z,11.98
2023-04-30T00:12:33.226Z,11.97
2023-04-30T00:15:01.423Z,11.90
2023-04-30T00:17:29.101Z,11.87
2023-04-30T00:19:57.036Z,11.85
2023-04-30T00:22:24.892Z,11.87
2023-04-30T00:24:52.439Z,11.83
2023-04-30T00:27:21.590Z,11.79
2023-04-30T00:29:49.199Z,11.79
2023-04-30T00:32:16.857Z,11.81
2023-04-30T00:34:44.544Z,11.83
2023-04-30T00:37:12.689Z,11.79
2023-04-30T00:39:40.277Z,11.80
2023-04-30T00:42:08.208Z,11.80
2023-04-30T00:44:37.194Z,11.79
2023-04-30T00:47:04.730Z,11.78
2023-04-30T00:49:32.448Z,11.84
2023-04-30T00:52:01.273Z,11.82
2023-04-30T00:54:28.789Z,11.80
2023-04-30T00:56:56.340Z,11.82
2023-04-30T00:59:24.142Z,11.83
2023-04-30T01:01:53.346Z,11.83
2023-04-30T01:04:21.447Z,11.81
2023-04-30T01:06:49.080Z,11.82
2023-04-30T01:09:16.747Z,11.83
2023-04-30T01:11:57.463Z,11.84
2023-04-30T01:14:31.026Z,11.77
2023-04-30T01:17:07.556Z,11.80
2023-04-30T01:19:46.910Z,11.83
2023-04-30T01:22:31.101Z,11.81
2023-04-30T01:25:08.300Z,11.82
2023-04-30T01:28:06.293Z,11.80
2023-04-30T01:30:35.905Z,11.82
2023-04-30T01:33:04.353Z,11.79
2023-04-30T01:35:50.416Z,11.79
2023-04-30T01:38:29.139Z,11.80
2023-04-30T01:41:03.773Z,11.79
2023-04-30T01:43:40.736Z,11.80
2023-04-30T01:46:19.673Z,11.84
2023-04-30T01:48:54.988Z,11.82
2023-04-30T01:51:29.942Z,11.81
2023-04-30T01:54:02.065Z,11.76
2023-04-30T01:56:33.241Z,11.72
2023-04-30T01:59:03.417Z,11.71
2023-04-30T02:01:33.756Z,11.73
2023-04-30T02:04:02.205Z,11.76
2023-04-30T02:06:30.383Z,11.79
2023-04-30T02:09:02.323Z,11.80
2023-04-30T02:11:30.167Z,11.80
2023-04-30T02:13:57.696Z,11.80
2023-04-30T02:16:26.721Z,11.82
2023-04-30T02:18:54.946Z,11.84
2023-04-30T02:21:22.636Z,11.90
2023-04-30T02:23:50.303Z,11.92
2023-04-30T02:26:17.878Z,11.89
2023-04-30T02:28:45.580Z,11.89
2023-04-30T02:31:13.332Z,11.89
2023-04-30T02:33:42.299Z,11.95
2023-04-30T02:36:10.033Z,11.95
2023-04-30T02:38:37.679Z,11.93
2023-04-30T02:41:05.260Z,11.95
2023-04-30T02:43:32.886Z,11.96
2023-04-30T02:46:01.135Z,11.99
2023-04-30T02:48:28.713Z,12.04
2023-04-30T02:50:57.596Z,11.99
2023-04-30T02:53:25.184Z,11.98
2023-04-30T02:55:52.774Z,11.99
2023-04-30T02:58:20.767Z,12.00
2023-04-30T03:00:48.385Z,12.02
2023-04-30T03:03:16.191Z,12.02
2023-04-30T03:05:44.822Z,12.01
2023-04-30T03:08:13.756Z,12.01
2023-04-30T03:10:41.363Z,11.98
2023-04-30T03:13:09.138Z,11.99
2023-04-30T03:15:36.695Z,11.99
2023-04-30T03:18:04.316Z,11.98
2023-04-30T03:20:31.927Z,11.95
2023-04-30T03:22:59.450Z,11.93
2023-04-30T03:25:28.382Z,11.94
2023-04-30T03:27:57.252Z,11.93
2023-04-30T03:30:26.588Z,11.93
2023-04-30T03:32:54.309Z,11.92
2023-04-30T03:35:22.382Z,11.93
2023-04-30T03:37:50.016Z,11.93
2023-04-30T03:40:17.628Z,11.92
2023-04-30T03:42:47.170Z,11.89
2023-04-30T03:45:15.861Z,11.87
2023-04-30T03:47:44.295Z,11.88
2023-04-30T03:50:12.554Z,11.86
2023-04-30T03:52:40.238Z,11.77
2023-04-30T03:55:08.677Z,11.72
2023-04-30T03:57:36.333Z,11.68
2023-04-30T04:00:07.588Z,11.69
2023-04-30T04:02:40.790Z,11.69
2023-04-30T04:05:11.066Z,11.61
2023-04-30T04:07:39.032Z,11.59
2023-04-30T04:10:07.756Z,11.58
2023-04-30T04:12:35.360Z,11.57
2023-04-30T04:15:02.920Z,11.58
2023-04-30T04:17:32.400Z,11.58
2023-04-30T04:20:00.093Z,11.59
2023-04-30T04:22:28.088Z,11.59
2023-04-30T04:24:56.308Z,11.60
2023-04-30T04:27:25.085Z,11.62
2023-04-30T04:29:55.108Z,11.62
2023-04-30T04:32:24.189Z,11.60
2023-04-30T04:34:54.274Z,11.63
2023-04-30T04:37:21.881Z,11.64
2023-04-30T04:39:49.575Z,11.65
2023-04-30T04:42:17.502Z,11.63
2023-04-30T04:44:45.094Z,11.64
2023-04-30T04:47:12.832Z,11.67
2023-04-30T04:49:40.717Z,11.68
2023-04-30T04:52:10.919Z,11.68
2023-04-30T04:54:38.494Z,11.72
2023-04-30T04:57:06.180Z,11.70
2023-04-30T04:59:33.688Z,11.79
2023-04-30T05:02:01.479Z,11.83
2023-04-30T05:04:30.325Z,11.81
2023-04-30T05:06:57.996Z,11.84
2023-04-30T05:09:26.884Z,11.89
2023-04-30T05:11:54.537Z,11.93
2023-04-30T05:14:22.161Z,11.98
2023-04-30T05:16:49.777Z,12.08
2023-04-30T05:19:17.306Z,12.12
2023-04-30T05:21:44.840Z,12.13
2023-04-30T05:24:12.344Z,12.11
2023-04-30T05:26:41.393Z,12.11
2023-04-30T05:29:10.483Z,12.17
2023-04-30T05:31:38.195Z,12.20
2023-04-30T05:34:05.870Z,12.21
2023-04-30T05:36:33.560Z,12.27
2023-04-30T05:39:01.060Z,12.36
2023-04-30T05:41:28.580Z,12.42
2023-04-30T05:43:57.510Z,12.47
2023-04-30T05:46:25.173Z,12.56
2023-04-30T05:48:52.876Z,12.61
2023-04-30T05:51:20.467Z,12.61
2023-04-30T05:53:47.999Z,12.67
2023-04-30T05:56:15.589Z,12.70
2023-04-30T05:58:43.115Z,12.75
2023-04-30T06:01:12.330Z,12.75
2023-04-30T06:03:39.925Z,12.83
2023-04-30T06:06:07.827Z,12.88
2023-04-30T06:08:35.354Z,12.92
2023-04-30T06:11:04.993Z,13.00
2023-04-30T06:13:33.134Z,13.12
2023-04-30T06:16:00.714Z,13.14
2023-04-30T06:18:29.682Z,13.19
2023-04-30T06:20:57.256Z,13.25
2023-04-30T06:23:24.808Z,13.28
2023-04-30T06:25:52.530Z,13.31
2023-04-30T06:28:20.141Z,13.34
2023-04-30T06:30:48.520Z,13.35
2023-04-30T06:33:16.070Z,13.41
2023-04-30T06:35:44.921Z,13.49
2023-04-30T06:38:12.468Z,13.53
2023-04-30T06:40:40.167Z,13.56
2023-04-30T06:43:07.794Z,13.62
2023-04-30T06:45:35.369Z,13.70
2023-04-30T06:48:02.970Z,13.71
2023-04-30T06:50:30.564Z,13.76
2023-04-30T06:52:59.408Z,13.91
2023-04-30T06:55:28.032Z,13.97
2023-04-30T06:57:57.727Z,13.95
2023-04-30T07:00:26.400Z,13.99
2023-04-30T07:02:54.079Z,14.09
2023-04-30T07:05:21.770Z,14.10
2023-04-30T07:07:49.345Z,14.14
2023-04-30T07:10:18.588Z,14.10
2023-04-30T07:12:46.309Z,14.21
2023-04-30T07:15:13.870Z,14.25
2023-04-30T07:17:42.031Z,14.33
2023-04-30T07:20:10.801Z,14.39
2023-04-30T07:22:38.321Z,14.38
2023-04-30T07:25:07.301Z,14.43
2023-04-30T07:27:36.185Z,14.48
2023-04-30T07:30:04.004Z,14.54
2023-04-30T07:32:31.683Z,14.60
2023-04-30T07:34:59.259Z,14.70
2023-04-30T07:37:27.018Z,14.82
2023-04-30T07:39:54.808Z,14.87
2023-04-30T07:42:23.214Z,14.98
2023-04-30T07:44:52.825Z,15.01
2023-04-30T07:47:20.788Z,15.05
2023-04-30T07:49:48.392Z,15.10
2023-04-30T07:52:15.937Z,15.05
2023-04-30T07:54:43.501Z,15.10
2023-04-30T07:57:11.091Z,15.19
2023-04-30T07:59:38.801Z,15.30
2023-04-30T08:02:08.606Z,15.38
2023-04-30T08:04:36.390Z,15.51
2023-04-30T08:07:04.442Z,15.53
2023-04-30T08:09:32.099Z,15.54
2023-04-30T08:11:59.662Z,15.64
2023-04-30T08:14:27.278Z,15.74
2023-04-30T08:16:55.081Z,15.79
2023-04-30T08:19:24.256Z,15.93
2023-04-30T08:21:51.904Z,16.09
2023-04-30T08:24:19.508Z,16.27
2023-04-30T08:26:47.174Z,16.48
2023-04-30T08:29:22.198Z,16.61
2023-04-30T08:31:49.934Z,16.78
2023-04-30T08:34:17.681Z,16.88
2023-04-30T08:36:47.214Z,16.91
2023-04-30T08:39:15.823Z,16.91
2023-04-30T08:41:47.994Z,16.94
2023-04-30T08:44:15.539Z,17.03
2023-04-30T08:46:44.677Z,16.92
2023-04-30T08:49:15.429Z,16.94
2023-04-30T08:51:47.848Z,16.96
2023-04-30T08:54:15.492Z,16.99
2023-04-30T08:56:43.150Z,16.87
2023-04-30T08:59:11.161Z,16.82
2023-04-30T09:01:38.790Z,16.95
2023-04-30T09:04:07.311Z,17.01
2023-04-30T09:06:35.095Z,17.00
2023-04-30T09:09:12.351Z,17.15
2023-04-30T09:11:40.606Z,17.35
2023-04-30T09:14:08.668Z,17.48
2023-04-30T09:16:47.505Z,17.68
2023-04-30T09:19:28.839Z,17.84
2023-04-30T09:21:56.669Z,17.66
2023-04-30T09:24:26.244Z,17.76
2023-04-30T09:26:54.883Z,17.86
2023-04-30T09:29:22.412Z,17.97
2023-04-30T09:31:50.234Z,18.09
2023-04-30T09:34:18.004Z,18.15
2023-04-30T09:36:55.986Z,18.34
2023-04-30T09:39:25.012Z,18.40
2023-04-30T09:41:52.888Z,18.26
2023-04-30T09:44:30.525Z,18.19
2023-04-30T09:47:00.333Z,17.86
2023-04-30T09:49:33.292Z,17.98
2023-04-30T09:52:04.668Z,18.00
2023-04-30T09:54:41.019Z,18.09
2023-04-30T09:57:12.209Z,18.08
2023-04-30T09:59:46.183Z,18.09
2023-04-30T10:02:15.749Z,18.13
2023-04-30T10:04:50.228Z,18.22
2023-04-30T10:07:22.701Z,18.59
2023-04-30T10:10:00.249Z,18.77
2023-04-30T10:12:38.654Z,19.01
2023-04-30T10:15:14.208Z,18.98
2023-04-30T10:17:44.587Z,19.17
2023-04-30T10:20:14.088Z,19.19
2023-04-30T10:22:43.599Z,19.29
2023-04-30T10:25:13.774Z,19.42
2023-04-30T10:27:41.731Z,19.16
2023-04-30T10:30:19.614Z,19.24
2023-04-30T10:32:53.960Z,18.96
2023-04-30T10:35:28.177Z,18.98
2023-04-30T10:38:00.549Z,18.98
2023-04-30T10:40:36.880Z,18.92
2023-04-30T10:43:07.083Z,18.90
2023-04-30T10:45:38.829Z,19.01
2023-04-30T10:48:07.996Z,19.09
2023-04-30T10:50:43.483Z,19.19
2023-04-30T10:53:16.902Z,19.27
2023-04-30T10:55:53.058Z,19.25
2023-04-30T10:58:28.750Z,19.34
2023-04-30T11:01:08.432Z,19.37
2023-04-30T11:03:42.338Z,19.45
2023-04-30T11:06:12.711Z,19.70
2023-04-30T11:08:43.757Z,19.38
2023-04-30T11:11:15.249Z,19.50
2023-04-30T11:13:46.276Z,19.65
2023-04-30T11:16:14.279Z,19.79
2023-04-30T11:18:46.023Z,19.53
2023-04-30T11:21:13.978Z,19.87
2023-04-30T11:23:45.077Z,19.96
2023-04-30T11:26:14.320Z,20.45
2023-04-30T11:28:53.218Z,20.55
2023-04-30T11:31:21.705Z,20.87
2023-04-30T11:33:50.310Z,20.98
2023-04-30T11:36:18.057Z,20.92
2023-04-30T11:38:46.250Z,21.09
2023-04-30T11:41:15.994Z,20.89
2023-04-30T11:43:43.919Z,20.88
2023-04-30T11:46:13.631Z,20.87
2023-04-30T11:48:44.640Z,20.94
2023-04-30T11:51:16.462Z,20.67
2023-04-30T11:53:46.593Z,20.70
2023-04-30T11:56:18.519Z,20.93
2023-04-30T11:58:47.787Z,20.97
2023-04-30T12:01:16.379Z,21.16
2023-04-30T12:03:45.098Z,20.89
2023-04-30T12:06:13.556Z,20.95
2023-04-30T12:08:42.858Z,21.20
2023-04-30T12:11:25.250Z,21.09
2023-04-30T12:13:54.842Z,21.21
2023-04-30T12:16:22.619Z,21.29
2023-04-30T12:18:52.819Z,21.41
2023-04-30T12:21:22.749Z,21.12
2023-04-30T12:23:50.571Z,21.86
2023-04-30T12:26:18.737Z,22.24
2023-04-30T12:28:49.649Z,22.31
2023-04-30T12:31:18.857Z,22.42
2023-04-30T12:33:54.858Z,22.06
2023-04-30T12:36:22.544Z,21.79
2023-04-30T12:38:50.683Z,21.92
2023-04-30T12:41:19.543Z,21.09
2023-04-30T12:43:49.535Z,21.28
2023-04-30T12:46:29.541Z,21.69
2023-04-30T12:48:57.293Z,21.92
2023-04-30T12:51:24.897Z,22.01
2023-04-30T12:53:52.564Z,22.09
2023-04-30T12:56:20.079Z,22.10
2023-04-30T12:58:50.869Z,21.92
2023-04-30T13:01:20.475Z,21.94
2023-04-30T13:03:49.682Z,21.85
2023-04-30T13:06:17.809Z,22.02
2023-04-30T13:08:57.920Z,22.12
2023-04-30T13:11:28.679Z,21.80
2023-04-30T13:13:56.740Z,21.78
2023-04-30T13:16:25.665Z,21.50
2023-04-30T13:18:55.535Z,21.56
2023-04-30T13:21:24.706Z,21.84
2023-04-30T13:23:54.510Z,22.06
2023-04-30T13:26:23.683Z,22.04
2023-04-30T13:28:51.598Z,21.65
2023-04-30T13:31:19.402Z,21.70
2023-04-30T13:33:49.374Z,21.77
2023-04-30T13:36:18.385Z,22.05
2023-04-30T13:38:45.978Z,22.45
2023-04-30T13:41:13.866Z,22.67
2023-04-30T13:43:42.654Z,23.64
2023-04-30T13:46:10.666Z,23.86
2023-04-30T13:48:38.594Z,24.08
2023-04-30T13:51:06.589Z,23.85
2023-04-30T13:53:36.650Z,23.37
2023-04-30T13:56:07.502Z,23.37
2023-04-30T13:58:35.078Z,23.42
2023-04-30T14:01:02.931Z,23.59
2023-04-30T14:03:31.203Z,23.53
2023-04-30T14:05:58.952Z,23.23
2023-04-30T14:08:26.623Z,23.17
2023-04-30T14:10:55.832Z,23.39
2023-04-30T14:13:23.592Z,23.97
2023-04-30T14:15:51.225Z,24.02
2023-04-30T14:18:22.451Z,23.54
2023-04-30T14:20:50.017Z,23.77
2023-04-30T14:23:17.548Z,23.44
2023-04-30T14:25:45.409Z,23.74
2023-04-30T14:28:14.334Z,24.03
2023-04-30T14:30:42.137Z,24.36
2023-04-30T14:33:12.267Z,24.23
2023-04-30T14:35:39.918Z,24.29
2023-04-30T14:38:07.664Z,23.93
2023-04-30T14:40:35.509Z,24.14
2023-04-30T14:43:03.101Z,23.57
2023-04-30T14:45:33.678Z,24.31
2023-04-30T14:48:04.621Z,24.91
2023-04-30T14:50:33.200Z,25.14
2023-04-30T14:53:00.745Z,25.65
2023-04-30T14:55:28.836Z,26.76
2023-04-30T14:57:56.374Z,27.21
2023-04-30T15:00:23.971Z,27.89
2023-04-30T15:02:52.913Z,28.58
2023-04-30T15:05:21.029Z,28.43
2023-04-30T15:07:48.773Z,28.07
2023-04-30T15:10:16.441Z,27.74
2023-04-30T15:12:44.022Z,27.15
2023-04-30T15:15:12.829Z,26.95
2023-04-30T15:17:41.191Z,27.23
2023-04-30T15:20:11.257Z,28.07
2023-04-30T15:22:38.986Z,28.47
2023-04-30T15:25:07.448Z,27.97
2023-04-30T15:27:35.010Z,26.94
2023-04-30T15:30:02.549Z,26.77
2023-04-30T15:32:30.115Z,26.16
2023-04-30T15:34:57.633Z,25.63
2023-04-30T15:37:26.951Z,25.89
2023-04-30T15:39:54.862Z,26.47
2023-04-30T15:42:22.709Z,26.27
2023-04-30T15:44:50.493Z,25.32
2023-04-30T15:47:18.114Z,24.85
2023-04-30T15:49:45.741Z,24.87
2023-04-30T15:52:13.286Z,25.34
2023-04-30T15:54:42.196Z,25.50
2023-04-30T15:57:09.887Z,25.36
2023-04-30T15:59:37.392Z,25.89
2023-04-30T16:02:05.082Z,27.11
2023-04-30T16:04:32.699Z,27.47
2023-04-30T16:07:01.108Z,27.14
2023-04-30T16:09:28.860Z,27.07
2023-04-30T16:11:58.721Z,27.11
2023-04-30T16:14:26.569Z,26.48
2023-04-30T16:16:54.267Z,26.18
2023-04-30T16:19:21.918Z,25.32
2023-04-30T16:21:49.535Z,24.34
2023-04-30T16:24:17.106Z,24.41
2023-04-30T16:26:44.682Z,24.08
2023-04-30T16:29:13.583Z,24.09
2023-04-30T16:31:41.938Z,24.08
2023-04-30T16:34:11.902Z,23.89
2023-04-30T16:36:39.567Z,23.78
2023-04-30T16:39:07.130Z,23.63
2023-04-30T16:41:35.188Z,23.33
2023-04-30T16:44:02.720Z,23.23
2023-04-30T16:46:31.743Z,22.83
2023-04-30T16:48:59.446Z,23.10
2023-04-30T16:51:27.525Z,22.75
2023-04-30T16:53:55.084Z,22.74
2023-04-30T16:56:22.613Z,22.63
2023-04-30T16:58:50.165Z,22.59
2023-04-30T17:01:17.733Z,22.74
2023-04-30T17:03:47.185Z,22.80
2023-04-30T17:06:15.100Z,22.95
2023-04-30T17:08:42.703Z,22.99
2023-04-30T17:11:10.567Z,23.28
2023-04-30T17:13:38.642Z,23.12
2023-04-30T17:16:06.839Z,23.03
2023-04-30T17:18:34.515Z,23.08
2023-04-30T17:21:03.471Z,22.94
2023-04-30T17:23:31.803Z,22.67
2023-04-30T17:25:59.358Z,22.44
2023-04-30T17:28:27.480Z,22.19
2023-04-30T17:30:55.733Z,21.90
2023-04-30T17:33:25.180Z,21.71
2023-04-30T17:35:53.072Z,21.55
2023-04-30T17:38:22.084Z,21.39
2023-04-30T17:40:49.652Z,20.99
2023-04-30T17:43:17.212Z,20.80
2023-04-30T17:45:45.419Z,20.57
2023-04-30T17:48:12.984Z,20.29
2023-04-30T17:50:40.551Z,20.19
2023-04-30T17:53:08.132Z,20.15
2023-04-30T17:55:37.305Z,19.93
2023-04-30T17:58:05.004Z,19.75
2023-04-30T18:00:32.590Z,19.52
2023-04-30T18:03:00.188Z,19.23
2023-04-30T18:05:27.882Z,19.06
2023-04-30T18:07:55.568Z,18.89
2023-04-30T18:10:23.163Z,18.72
2023-04-30T18:12:53.963Z,18.56
2023-04-30T18:15:21.742Z,18.37
2023-04-30T18:17:49.358Z,18.12
2023-04-30T18:20:16.935Z,17.89
2023-04-30T18:22:44.468Z,17.74
2023-04-30T18:25:12.937Z,17.61
2023-04-30T18:27:41.743Z,17.49
2023-04-30T18:30:12.728Z,17.23
2023-04-30T18:32:41.626Z,16.99
2023-04-30T18:35:10.221Z,16.86
2023-04-30T18:37:37.797Z,16.70
2023-04-30T18:40:06.095Z,16.62
2023-04-30T18:42:34.612Z,16.50
2023-04-30T18:45:02.323Z,16.36
2023-04-30T18:47:32.828Z,16.25
2023-04-30T18:50:00.349Z,16.14
2023-04-30T18:52:27.952Z,16.05
2023-04-30T18:54:55.494Z,15.89
2023-04-30T18:57:23.193Z,15.80
2023-04-30T18:59:50.734Z,15.68
2023-04-30T19:02:18.435Z,15.58
2023-04-30T19:04:47.313Z,15.45
2023-04-30T19:07:14.974Z,15.33
2023-04-30T19:09:45.129Z,15.21
2023-04-30T19:12:14.916Z,15.10
2023-04-30T19:14:42.476Z,14.95
2023-04-30T19:17:10.149Z,14.75
2023-04-30T19:19:37.797Z,14.68
2023-04-30T19:22:07.023Z,14.57
2023-04-30T19:24:34.631Z,14.50
2023-04-30T19:27:04.065Z,14.42
2023-04-30T19:29:31.709Z,14.33
2023-04-30T19:31:59.928Z,14.22
2023-04-30T19:34:27.859Z,14.22
2023-04-30T19:36:55.447Z,14.16
2023-04-30T19:39:30.118Z,14.10
2023-04-30T19:41:57.875Z,14.02
2023-04-30T19:44:25.532Z,13.92
2023-04-30T19:46:53.129Z,13.87
2023-04-30T19:49:20.667Z,13.80
2023-04-30T19:51:48.301Z,13.71
2023-04-30T19:54:16.174Z,13.71
2023-04-30T19:56:45.152Z,13.62
2023-04-30T19:59:12.862Z,13.55
2023-04-30T20:01:42.356Z,13.53
2023-04-30T20:04:10.661Z,13.44
2023-04-30T20:06:38.501Z,13.39
2023-04-30T20:09:06.325Z,13.27
2023-04-30T20:11:33.999Z,13.22
2023-04-30T20:14:02.956Z,13.18
2023-04-30T20:16:30.708Z,13.11
2023-04-30T20:18:58.473Z,13.08
2023-04-30T20:21:26.093Z,13.04
2023-04-30T20:23:53.690Z,12.91
2023-04-30T20:26:21.572Z,12.87
2023-04-30T20:28:49.135Z,12.79
2023-04-30T20:31:18.104Z,12.74
2023-04-30T20:33:46.633Z,12.63
2023-04-30T20:36:14.484Z,12.58
2023-04-30T20:38:41.977Z,12.53
2023-04-30T20:41:10.206Z,12.52
2023-04-30T20:43:38.002Z,12.45
2023-04-30T20:46:05.773Z,12.41
2023-04-30T20:48:34.859Z,12.40
2023-04-30T20:51:02.395Z,12.38
2023-04-30T20:53:30.659Z,12.36
2023-04-30T20:56:00.256Z,12.31
2023-04-30T20:58:28.064Z,12.27
2023-04-30T21:00:56.599Z,12.27
2023-04-30T21:03:24.324Z,12.21
2023-04-30T21:05:53.445Z,12.22
2023-04-30T21:08:20.961Z,12.20
2023-04-30T21:10:48.671Z,12.15
2023-04-30T21:13:17.028Z,12.11
2023-04-30T21:15:45.380Z,12.08
2023-04-30T21:18:12.999Z,12.09
2023-04-30T21:20:40.537Z,12.03
2023-04-30T21:23:09.501Z,11.99
2023-04-30T21:25:37.854Z,11.95
2023-04-30T21:28:05.463Z,11.90
2023-04-30T21:30:33.132Z,11.84
2023-04-30T21:33:00.920Z,11.79
2023-04-30T21:35:32.757Z,11.74
2023-04-30T21:38:00.304Z,11.69
2023-04-30T21:40:33.190Z,11.63
2023-04-30T21:43:01.119Z,11.59
2023-04-30T21:45:28.682Z,11.53
2023-04-30T21:47:56.349Z,11.47
2023-04-30T21:50:24.604Z,11.42
2023-04-30T21:52:52.113Z,11.41
2023-04-30T21:55:19.922Z,11.38
2023-04-30T21:57:51.325Z,11.35
2023-04-30T22:00:19.098Z,11.31
2023-04-30T22:02:50.614Z,11.23
2023-04-30T22:05:19.472Z,11.18
2023-04-30T22:07:47.586Z,11.14
2023-04-30T22:10:15.617Z,11.04
2023-04-30T22:12:47.148Z,10.99
2023-04-30T22:15:16.827Z,10.96
2023-04-30T22:17:46.160Z,10.91
2023-04-30T22:20:13.932Z,10.86
2023-04-30T22:22:41.734Z,10.81
2023-04-30T22:25:10.387Z,10.73
2023-04-30T22:27:38.006Z,10.62
2023-04-30T22:30:06.718Z,10.57
2023-04-30T22:32:35.697Z,10.53
2023-04-30T22:35:03.882Z,10.52
2023-04-30T22:37:31.470Z,10.48
2023-04-30T22:39:59.252Z,10.45
2023-04-30T22:42:27.334Z,10.40
2023-04-30T22:44:55.608Z,10.36
2023-04-30T22:47:23.354Z,10.37
2023-04-30T22:49:52.351Z,10.30
2023-04-30T22:52:19.951Z,10.16
2023-04-30T22:54:47.680Z,10.12
2023-04-30T22:57:15.282Z,10.08
2023-04-30T22:59:42.920Z,10.07
2023-04-30T23:02:10.500Z,10.04
2023-04-30T23:04:38.316Z,10.02
2023-04-30T23:07:07.367Z,9.99
2023-04-30T23:09:35.558Z,9.98
2023-04-30T23:12:04.774Z,9.94
2023-04-30T23:14:32.304Z,9.95
2023-04-30T23:17:00.695Z,9.96
2023-04-30T23:19:28.390Z,9.91
2023-04-30T23:21:56.742Z,9.90
2023-04-30T23:24:26.220Z,9.88
2023-04-30T23:26:55.126Z,9.82
2023-04-30T23:29:22.680Z,9.80
2023-04-30T23:31:50.914Z,9.78
2023-04-30T23:34:18.441Z,9.76
2023-04-30T23:36:46.070Z,9.75
2023-04-30T23:39:13.594Z,9.74
2023-04-30T23:41:42.452Z,9.76
2023-04-30T23:44:10.006Z,9.75
2023-04-30T23:46:37.520Z,9.74
2023-04-30T23:49:05.192Z,9.75
2023-04-30T23:51:33.327Z,9.74
2023-04-30T23:54:00.977Z,9.74
2023-04-30T23:56:28.584Z,9.74
2023-04-30T23:58:57.812Z,9.74
